Hauptseite
METAR-TAF:

METAR-TAF

Flughäfen :

Gove-Halbinsel, Australien

Breite: 12-16-12S, Länge: 136-49-06E, Höhe: 62 m

Beobachtung

Neuester Wetterbericht von vor 39 Minuten, um 02:30 UTC
Wind 5 kt aus Ost/Südost
Temperatur 31°C
Luftfeuchtigkeit 75%
Luftdruck 1010 hPa
Sichtweite 10 km oder mehr

METAR: YPGV 020230Z AUTO 12005KT 9999 // NCD 31/26 Q1010 RF00.0/000.8

Zeit: 12:39 (03:09 UTC)

Prognose

Neuester Wetterbericht von vor 1 Stunde und 35 Minuten, um 01:34 UTC
Gültige Prognose vom 02 um 01 UTC bis 02 um 14 UTC
Wind 8 kt aus Nordost
Sichtweite 10 km oder mehr
Aufgelockert bewölkt in der Höhe von 2000 ft
Ab 02 um 1200 UTC
Wind 5 kt aus West/Südwest
Sichtweite: 3000 m
Aufgelockert bewölkt in der Höhe von 1500 ft
Durchbrochene Bewölkung in der Höhe von 1000 ft
Regenschauer,

TAF: YPGV 020134Z 0201/0214 05008KT 9999 SCT020 FM021200 25005KT 9999 SCT015 INTER 0201/0203 3000 SHRA BKN010

Wetterbeobachtungen und Prognosen von mehr als 4000 Flughäfen (METAR und TAF Bericht).

Die verfügbaren Stationen werden durch gelbe und rote Markierungen auf der Karte dargestellt.

Führen Sie die Maus auf sie, um den Namen der Station zu sehen.

Darauf klicken, um die Beobachtung von Wetterbeobachtungen und Prognosen zu sehen.

Um die Karte zu ändern : klicken Sie auf den grünen Tasten mit einem schwarzen Kreuz Zum Vergrößern, auf den grünen Button mit einem Gedankenstrich zu verkleinern, oder auf die grünen Pfeile für benachbarte Karten.


METAR-TAF: